createdAt,value
2023-02-25T00:04:19.731Z,3.10
2023-02-25T00:10:22.008Z,3.09
2023-02-25T00:16:25.537Z,3.20
2023-02-25T00:22:28.357Z,3.26
2023-02-25T00:28:30.296Z,3.36
2023-02-25T00:34:32.227Z,3.38
2023-02-25T00:40:38.356Z,3.40
2023-02-25T00:46:40.312Z,3.48
2023-02-25T00:52:44.599Z,3.53
2023-02-25T00:58:48.050Z,3.57
2023-02-25T01:04:50.014Z,3.48
2023-02-25T01:10:53.435Z,3.51
2023-02-25T01:16:57.780Z,3.44
2023-02-25T01:22:59.825Z,3.37
2023-02-25T01:29:05.632Z,3.40
2023-02-25T01:35:08.042Z,3.58
2023-02-25T01:41:10.212Z,3.46
2023-02-25T01:47:21.029Z,3.45
2023-02-25T01:53:35.184Z,3.54
2023-02-25T01:59:39.994Z,3.46
2023-02-25T02:06:18.784Z,3.34
2023-02-25T02:12:20.734Z,3.28
2023-02-25T02:18:23.176Z,3.21
2023-02-25T02:25:14.757Z,3.17
2023-02-25T02:31:53.249Z,3.27
2023-02-25T02:38:14.109Z,3.38
2023-02-25T02:44:35.323Z,3.47
2023-02-25T02:50:46.661Z,3.54
2023-02-25T02:56:52.954Z,3.56
2023-02-25T03:03:07.205Z,3.64
2023-02-25T03:09:30.549Z,3.57
2023-02-25T03:15:33.717Z,3.61
2023-02-25T03:21:43.987Z,3.69
2023-02-25T03:27:52.371Z,3.59
2023-02-25T03:34:09.569Z,3.69
2023-02-25T03:40:15.179Z,3.61
2023-02-25T03:46:20.211Z,3.57
2023-02-25T03:52:24.387Z,3.70
2023-02-25T03:58:26.304Z,3.69
2023-02-25T04:04:28.390Z,3.66
2023-02-25T04:10:30.338Z,3.61
2023-02-25T04:16:32.305Z,3.65
2023-02-25T04:22:34.609Z,3.37
2023-02-25T04:28:36.622Z,3.49
2023-02-25T04:34:38.607Z,3.47
2023-02-25T04:40:40.759Z,3.54
2023-02-25T04:46:43.412Z,3.56
2023-02-25T04:52:45.401Z,3.59
2023-02-25T04:58:47.378Z,3.53
2023-02-25T05:04:49.384Z,3.43
2023-02-25T05:10:52.107Z,3.53
2023-02-25T05:16:54.073Z,3.67
2023-02-25T05:22:55.970Z,3.69
2023-02-25T05:28:58.203Z,3.62
2023-02-25T05:35:00.562Z,3.61
2023-02-25T05:41:03.791Z,3.65
2023-02-25T05:47:07.524Z,3.65
2023-02-25T05:53:09.876Z,3.49
2023-02-25T05:59:12.377Z,3.62
2023-02-25T06:05:14.307Z,3.79
2023-02-25T06:11:30.016Z,3.70
2023-02-25T06:17:31.927Z,3.51
2023-02-25T06:23:39.034Z,3.51
2023-02-25T06:29:41.655Z,3.42
2023-02-25T06:35:43.594Z,3.24
2023-02-25T06:41:45.494Z,3.28
2023-02-25T06:47:47.446Z,3.26
2023-02-25T06:53:51.038Z,3.35
2023-02-25T06:59:53.340Z,3.38
2023-02-25T07:05:55.222Z,3.54
2023-02-25T07:11:57.631Z,3.46
2023-02-25T07:17:59.517Z,3.41
2023-02-25T07:24:01.532Z,3.34
2023-02-25T07:30:05.169Z,3.33
2023-02-25T07:36:07.244Z,3.23
2023-02-25T07:42:09.150Z,3.31
2023-02-25T07:48:11.403Z,3.12
2023-02-25T07:54:14.643Z,3.16
2023-02-25T08:00:17.687Z,3.32
2023-02-25T08:06:20.982Z,3.42
2023-02-25T08:12:23.123Z,3.55
2023-02-25T08:18:25.004Z,3.70
2023-02-25T08:24:27.096Z,4.07
2023-02-25T08:30:29.084Z,4.25
2023-02-25T08:36:31.851Z,4.48
2023-02-25T08:42:33.784Z,4.44
2023-02-25T08:48:37.040Z,4.58
2023-02-25T08:54:39.827Z,4.41
2023-02-25T09:00:42.119Z,4.59
2023-02-25T09:06:47.354Z,4.51
2023-02-25T09:12:49.868Z,4.52
2023-02-25T09:18:51.940Z,4.48
2023-02-25T09:24:54.149Z,4.41
2023-02-25T09:30:58.038Z,4.34
2023-02-25T09:37:03.725Z,4.37
2023-02-25T09:43:29.390Z,4.08
2023-02-25T09:50:02.464Z,4.14
2023-02-25T09:56:07.991Z,4.32
2023-02-25T10:02:21.865Z,4.68
2023-02-25T10:09:03.135Z,5.17
2023-02-25T10:15:52.742Z,5.56
2023-02-25T10:22:24.628Z,5.34
2023-02-25T10:28:28.128Z,5.28
2023-02-25T10:34:32.733Z,5.29
2023-02-25T10:40:34.859Z,5.29
2023-02-25T10:47:00.273Z,5.28
2023-02-25T10:53:19.030Z,5.26
2023-02-25T10:59:39.990Z,5.21
2023-02-25T11:05:44.805Z,5.35
2023-02-25T11:12:19.028Z,5.54
2023-02-25T11:18:29.676Z,4.83
2023-02-25T11:24:36.470Z,3.69
2023-02-25T11:30:40.423Z,3.23
2023-02-25T11:36:42.821Z,3.06
2023-02-25T11:42:59.247Z,3.35
2023-02-25T11:49:18.692Z,3.72
2023-02-25T11:55:45.858Z,3.73
2023-02-25T12:02:27.445Z,3.62
2023-02-25T12:08:36.109Z,3.99
2023-02-25T12:15:00.681Z,4.29
2023-02-25T12:21:43.228Z,4.64
2023-02-25T12:28:12.304Z,4.73
2023-02-25T12:34:46.817Z,4.82
2023-02-25T12:40:54.350Z,5.88
2023-02-25T12:47:44.589Z,7.01
2023-02-25T12:54:24.665Z,6.15
2023-02-25T13:00:57.248Z,5.64
2023-02-25T13:07:53.116Z,5.54
2023-02-25T13:14:29.141Z,4.97
2023-02-25T13:20:56.900Z,4.45
2023-02-25T13:27:20.800Z,4.20
2023-02-25T13:34:00.307Z,3.68
2023-02-25T13:40:21.245Z,2.85
2023-02-25T13:46:45.934Z,2.84
2023-02-25T13:53:25.825Z,3.02
2023-02-25T13:59:55.907Z,3.50
2023-02-25T14:06:21.006Z,3.50
2023-02-25T14:13:02.848Z,3.03
2023-02-25T14:19:41.189Z,3.23
2023-02-25T14:26:18.141Z,2.87
2023-02-25T14:32:43.455Z,2.32
2023-02-25T14:39:27.114Z,2.19
2023-02-25T14:45:46.088Z,2.58
2023-02-25T14:52:40.891Z,2.59
2023-02-25T14:59:39.952Z,2.40
2023-02-25T15:06:27.202Z,2.59
2023-02-25T15:13:16.771Z,3.03
2023-02-25T15:19:34.640Z,3.47
2023-02-25T15:25:44.322Z,3.17
2023-02-25T15:32:29.949Z,3.15
2023-02-25T15:38:51.066Z,2.91
2023-02-25T15:44:53.363Z,2.95
2023-02-25T15:50:55.708Z,2.98
2023-02-25T15:57:01.436Z,2.95
2023-02-25T16:03:23.290Z,2.91
2023-02-25T16:09:27.357Z,2.95
2023-02-25T16:15:37.572Z,3.27
2023-02-25T16:21:46.558Z,3.65
2023-02-25T16:28:23.137Z,3.28
2023-02-25T16:34:53.168Z,2.73
2023-02-25T16:40:55.262Z,2.44
2023-02-25T16:46:57.420Z,2.54
2023-02-25T16:53:00.872Z,2.10
2023-02-25T16:59:14.524Z,1.89
2023-02-25T17:05:37.398Z,1.58
2023-02-25T17:11:39.331Z,1.58
2023-02-25T17:17:42.915Z,1.56
2023-02-25T17:23:45.335Z,1.47
2023-02-25T17:29:48.645Z,1.17
2023-02-25T17:35:53.435Z,0.75
2023-02-25T17:41:55.693Z,0.71
2023-02-25T17:47:57.651Z,0.64
2023-02-25T17:54:08.200Z,0.65
2023-02-25T18:00:25.238Z,0.54
2023-02-25T18:06:44.814Z,0.45
2023-02-25T18:12:48.155Z,0.45
2023-02-25T18:18:52.508Z,0.66
2023-02-25T18:24:59.106Z,0.93
2023-02-25T18:31:01.231Z,0.77
2023-02-25T18:37:03.973Z,0.61
2023-02-25T18:43:06.909Z,0.71
2023-02-25T18:49:08.900Z,0.70
2023-02-25T18:55:20.053Z,0.58
2023-02-25T19:01:26.102Z,0.60
2023-02-25T19:07:33.904Z,0.70
2023-02-25T19:13:40.538Z,0.66
2023-02-25T19:19:46.474Z,0.67
2023-02-25T19:25:56.021Z,0.66
2023-02-25T19:31:58.513Z,0.50
2023-02-25T19:38:01.120Z,0.44
2023-02-25T19:44:03.464Z,0.19
2023-02-25T19:50:06.341Z,0.20
2023-02-25T19:56:08.235Z,0.27
2023-02-25T20:02:12.538Z,0.34
2023-02-25T20:08:14.410Z,0.18
2023-02-25T20:14:17.369Z,0.14
2023-02-25T20:20:19.421Z,0.20
2023-02-25T20:26:24.298Z,0.37
2023-02-25T20:32:26.432Z,0.37
2023-02-25T20:38:38.274Z,0.32
2023-02-25T20:44:41.110Z,0.39
2023-02-25T20:50:43.513Z,0.29
2023-02-25T20:56:47.028Z,0.44
2023-02-25T21:02:48.963Z,0.28
2023-02-25T21:08:51.797Z,0.29
2023-02-25T21:14:53.687Z,0.18
2023-02-25T21:21:07.637Z,0.15
2023-02-25T21:27:09.649Z,0.08
2023-02-25T21:33:12.272Z,0.09
2023-02-25T21:39:14.211Z,0.10
2023-02-25T21:45:16.105Z,0.05
2023-02-25T21:51:22.351Z,-0.03
2023-02-25T21:57:24.245Z,0.13
2023-02-25T22:03:26.225Z,0.09
2023-02-25T22:09:28.350Z,0.27
2023-02-25T22:15:30.388Z,0.19
2023-02-25T22:21:35.506Z,0.15
2023-02-25T22:27:37.459Z,0.23
2023-02-25T22:33:40.279Z,0.04
2023-02-25T22:39:42.254Z,0.17
2023-02-25T22:45:44.477Z,0.18
2023-02-25T22:51:48.075Z,0.11
2023-02-25T22:57:49.957Z,0.32
2023-02-25T23:03:55.211Z,0.43
2023-02-25T23:09:57.070Z,0.24
2023-02-25T23:16:02.208Z,0.25
2023-02-25T23:22:04.127Z,0.19
2023-02-25T23:28:08.779Z,0.11
2023-02-25T23:34:14.735Z,-0.20
2023-02-25T23:40:17.367Z,-0.21
2023-02-25T23:46:19.941Z,-0.27
2023-02-25T23:52:21.876Z,-0.48
2023-02-25T23:58:23.780Z,-0.47
